sensor_id;sensor_type;location;lat;lon;timestamp;P1;durP1;ratioP1;P2;durP2;ratioP2
16699;SDS011;8466;52.286;21.124;2023-05-14T00:01:22;41.22;;;33.90;;
16699;SDS011;8466;52.286;21.124;2023-05-14T00:03:50;41.90;;;33.92;;
16699;SDS011;8466;52.286;21.124;2023-05-14T00:06:19;47.23;;;36.33;;
16699;SDS011;8466;52.286;21.124;2023-05-14T00:08:48;46.83;;;38.27;;
16699;SDS011;8466;52.286;21.124;2023-05-14T00:11:16;47.60;;;39.10;;
16699;SDS011;8466;52.286;21.124;2023-05-14T00:13:45;45.83;;;36.97;;
16699;SDS011;8466;52.286;21.124;2023-05-14T00:16:15;46.63;;;38.53;;
16699;SDS011;8466;52.286;21.124;2023-05-14T00:18:44;48.97;;;38.87;;
16699;SDS011;8466;52.286;21.124;2023-05-14T00:21:12;46.63;;;39.17;;
16699;SDS011;8466;52.286;21.124;2023-05-14T00:23:41;53.27;;;41.70;;
16699;SDS011;8466;52.286;21.124;2023-05-14T00:26:10;56.07;;;41.87;;
16699;SDS011;8466;52.286;21.124;2023-05-14T00:28:38;52.70;;;41.30;;
16699;SDS011;8466;52.286;21.124;2023-05-14T00:31:07;48.77;;;41.10;;
16699;SDS011;8466;52.286;21.124;2023-05-14T00:33:37;45.90;;;37.10;;
16699;SDS011;8466;52.286;21.124;2023-05-14T00:36:06;46.20;;;36.90;;
16699;SDS011;8466;52.286;21.124;2023-05-14T00:38:35;33.50;;;28.00;;
16699;SDS011;8466;52.286;21.124;2023-05-14T00:41:04;35.93;;;29.33;;
16699;SDS011;8466;52.286;21.124;2023-05-14T00:43:32;37.17;;;28.43;;
16699;SDS011;8466;52.286;21.124;2023-05-14T00:46:01;31.00;;;26.47;;
16699;SDS011;8466;52.286;21.124;2023-05-14T00:48:29;34.37;;;28.50;;
16699;SDS011;8466;52.286;21.124;2023-05-14T00:50:59;31.13;;;26.23;;
16699;SDS011;8466;52.286;21.124;2023-05-14T00:53:28;34.03;;;28.00;;
16699;SDS011;8466;52.286;21.124;2023-05-14T00:55:57;33.77;;;27.27;;
16699;SDS011;8466;52.286;21.124;2023-05-14T00:58:26;30.07;;;25.63;;
16699;SDS011;8466;52.286;21.124;2023-05-14T01:00:54;32.40;;;25.93;;
16699;SDS011;8466;52.286;21.124;2023-05-14T01:03:23;33.43;;;26.67;;
16699;SDS011;8466;52.286;21.124;2023-05-14T01:05:54;35.83;;;27.23;;
16699;SDS011;8466;52.286;21.124;2023-05-14T01:08:35;30.37;;;25.43;;
16699;SDS011;8466;52.286;21.124;2023-05-14T01:11:10;32.20;;;26.17;;
16699;SDS011;8466;52.286;21.124;2023-05-14T01:13:45;28.50;;;23.57;;
16699;SDS011;8466;52.286;21.124;2023-05-14T01:16:32;26.87;;;23.80;;
16699;SDS011;8466;52.286;21.124;2023-05-14T01:19:03;25.57;;;22.27;;
16699;SDS011;8466;52.286;21.124;2023-05-14T01:21:39;29.40;;;22.87;;
16699;SDS011;8466;52.286;21.124;2023-05-14T01:24:10;27.03;;;22.97;;
16699;SDS011;8466;52.286;21.124;2023-05-14T01:26:39;28.40;;;22.20;;
16699;SDS011;8466;52.286;21.124;2023-05-14T01:29:10;29.10;;;24.03;;
16699;SDS011;8466;52.286;21.124;2023-05-14T01:31:43;29.13;;;23.20;;
16699;SDS011;8466;52.286;21.124;2023-05-14T01:34:14;28.03;;;21.87;;
16699;SDS011;8466;52.286;21.124;2023-05-14T01:36:47;25.10;;;21.27;;
16699;SDS011;8466;52.286;21.124;2023-05-14T01:43:03;29.00;;;21.47;;
16699;SDS011;8466;52.286;21.124;2023-05-14T01:45:33;25.03;;;21.00;;
16699;SDS011;8466;52.286;21.124;2023-05-14T01:48:03;29.67;;;20.87;;
16699;SDS011;8466;52.286;21.124;2023-05-14T01:50:32;24.57;;;20.73;;
16699;SDS011;8466;52.286;21.124;2023-05-14T01:53:02;26.17;;;22.50;;
16699;SDS011;8466;52.286;21.124;2023-05-14T01:55:30;25.73;;;22.23;;
16699;SDS011;8466;52.286;21.124;2023-05-14T01:57:59;26.50;;;22.87;;
16699;SDS011;8466;52.286;21.124;2023-05-14T02:00:27;27.00;;;22.90;;
16699;SDS011;8466;52.286;21.124;2023-05-14T02:02:56;29.37;;;24.30;;
16699;SDS011;8466;52.286;21.124;2023-05-14T02:05:25;27.80;;;22.53;;
16699;SDS011;8466;52.286;21.124;2023-05-14T02:07:53;27.20;;;22.47;;
16699;SDS011;8466;52.286;21.124;2023-05-14T02:10:23;25.80;;;22.43;;
16699;SDS011;8466;52.286;21.124;2023-05-14T02:12:52;28.27;;;24.17;;
16699;SDS011;8466;52.286;21.124;2023-05-14T02:15:20;29.70;;;24.07;;
16699;SDS011;8466;52.286;21.124;2023-05-14T02:17:49;26.10;;;22.63;;
16699;SDS011;8466;52.286;21.124;2023-05-14T02:20:18;27.17;;;23.33;;
16699;SDS011;8466;52.286;21.124;2023-05-14T02:22:47;30.33;;;23.80;;
16699;SDS011;8466;52.286;21.124;2023-05-14T02:25:15;28.83;;;24.63;;
16699;SDS011;8466;52.286;21.124;2023-05-14T02:27:46;28.03;;;23.63;;
16699;SDS011;8466;52.286;21.124;2023-05-14T02:30:15;28.57;;;23.60;;
16699;SDS011;8466;52.286;21.124;2023-05-14T02:32:43;28.70;;;25.30;;
16699;SDS011;8466;52.286;21.124;2023-05-14T02:35:12;31.20;;;25.10;;
16699;SDS011;8466;52.286;21.124;2023-05-14T02:37:40;28.80;;;24.70;;
16699;SDS011;8466;52.286;21.124;2023-05-14T02:40:09;27.33;;;23.70;;
16699;SDS011;8466;52.286;21.124;2023-05-14T02:42:38;27.60;;;24.60;;
16699;SDS011;8466;52.286;21.124;2023-05-14T02:45:09;29.03;;;24.77;;
16699;SDS011;8466;52.286;21.124;2023-05-14T02:47:38;28.17;;;24.37;;
16699;SDS011;8466;52.286;21.124;2023-05-14T02:50:07;29.90;;;26.00;;
16699;SDS011;8466;52.286;21.124;2023-05-14T02:52:36;32.23;;;25.60;;
16699;SDS011;8466;52.286;21.124;2023-05-14T02:55:05;33.00;;;25.43;;
16699;SDS011;8466;52.286;21.124;2023-05-14T02:57:34;30.43;;;25.90;;
16699;SDS011;8466;52.286;21.124;2023-05-14T03:00:03;29.87;;;25.10;;
16699;SDS011;8466;52.286;21.124;2023-05-14T03:02:34;26.73;;;23.90;;
16699;SDS011;8466;52.286;21.124;2023-05-14T03:05:04;29.30;;;26.07;;
16699;SDS011;8466;52.286;21.124;2023-05-14T03:07:33;31.13;;;26.50;;
16699;SDS011;8466;52.286;21.124;2023-05-14T03:10:02;34.83;;;27.80;;
16699;SDS011;8466;52.286;21.124;2023-05-14T03:12:31;33.20;;;28.70;;
16699;SDS011;8466;52.286;21.124;2023-05-14T03:14:59;31.63;;;27.60;;
16699;SDS011;8466;52.286;21.124;2023-05-14T03:17:28;31.70;;;27.20;;
16699;SDS011;8466;52.286;21.124;2023-05-14T03:19:58;32.17;;;26.80;;
16699;SDS011;8466;52.286;21.124;2023-05-14T03:22:27;38.50;;;29.47;;
16699;SDS011;8466;52.286;21.124;2023-05-14T03:24:56;39.87;;;30.87;;
16699;SDS011;8466;52.286;21.124;2023-05-14T03:27:24;39.00;;;32.77;;
16699;SDS011;8466;52.286;21.124;2023-05-14T03:29:53;40.97;;;33.77;;
16699;SDS011;8466;52.286;21.124;2023-05-14T03:32:22;45.17;;;38.00;;
16699;SDS011;8466;52.286;21.124;2023-05-14T03:34:50;49.00;;;41.10;;
16699;SDS011;8466;52.286;21.124;2023-05-14T03:37:21;57.57;;;44.33;;
16699;SDS011;8466;52.286;21.124;2023-05-14T03:39:49;56.60;;;45.17;;
16699;SDS011;8466;52.286;21.124;2023-05-14T03:42:18;49.07;;;39.73;;
16699;SDS011;8466;52.286;21.124;2023-05-14T03:44:46;46.10;;;37.43;;
16699;SDS011;8466;52.286;21.124;2023-05-14T03:47:15;42.97;;;35.77;;
16699;SDS011;8466;52.286;21.124;2023-05-14T03:49:43;47.27;;;37.90;;
16699;SDS011;8466;52.286;21.124;2023-05-14T03:52:12;48.03;;;37.37;;
16699;SDS011;8466;52.286;21.124;2023-05-14T03:54:42;52.43;;;40.47;;
16699;SDS011;8466;52.286;21.124;2023-05-14T03:57:10;52.17;;;40.13;;
16699;SDS011;8466;52.286;21.124;2023-05-14T03:59:39;52.60;;;40.87;;
16699;SDS011;8466;52.286;21.124;2023-05-14T04:02:07;46.00;;;38.43;;
16699;SDS011;8466;52.286;21.124;2023-05-14T04:04:36;42.90;;;34.87;;
16699;SDS011;8466;52.286;21.124;2023-05-14T04:07:05;41.80;;;31.20;;
16699;SDS011;8466;52.286;21.124;2023-05-14T04:09:34;36.70;;;30.60;;
16699;SDS011;8466;52.286;21.124;2023-05-14T04:12:04;35.45;;;29.75;;
16699;SDS011;8466;52.286;21.124;2023-05-14T04:14:34;32.30;;;27.35;;
16699;SDS011;8466;52.286;21.124;2023-05-14T04:17:02;33.58;;;28.65;;
16699;SDS011;8466;52.286;21.124;2023-05-14T04:19:31;39.63;;;29.95;;
16699;SDS011;8466;52.286;21.124;2023-05-14T04:22:00;35.72;;;31.05;;
16699;SDS011;8466;52.286;21.124;2023-05-14T04:24:28;34.40;;;29.08;;
16699;SDS011;8466;52.286;21.124;2023-05-14T04:26:57;32.00;;;28.42;;
16699;SDS011;8466;52.286;21.124;2023-05-14T04:29:28;34.75;;;27.67;;
16699;SDS011;8466;52.286;21.124;2023-05-14T04:31:56;35.15;;;27.75;;
16699;SDS011;8466;52.286;21.124;2023-05-14T04:34:26;32.35;;;26.10;;
16699;SDS011;8466;52.286;21.124;2023-05-14T04:36:55;31.83;;;25.25;;
16699;SDS011;8466;52.286;21.124;2023-05-14T04:39:23;26.02;;;22.90;;
16699;SDS011;8466;52.286;21.124;2023-05-14T04:41:52;25.92;;;22.40;;
16699;SDS011;8466;52.286;21.124;2023-05-14T04:44:20;25.30;;;22.33;;
16699;SDS011;8466;52.286;21.124;2023-05-14T04:46:50;25.92;;;22.33;;
16699;SDS011;8466;52.286;21.124;2023-05-14T04:49:19;23.75;;;20.65;;
16699;SDS011;8466;52.286;21.124;2023-05-14T04:51:48;23.95;;;20.65;;
16699;SDS011;8466;52.286;21.124;2023-05-14T04:54:16;24.42;;;19.10;;
16699;SDS011;8466;52.286;21.124;2023-05-14T04:56:45;23.05;;;19.17;;
16699;SDS011;8466;52.286;21.124;2023-05-14T04:59:14;21.90;;;17.90;;
16699;SDS011;8466;52.286;21.124;2023-05-14T05:01:43;22.60;;;17.58;;
16699;SDS011;8466;52.286;21.124;2023-05-14T05:04:13;18.13;;;16.25;;
16699;SDS011;8466;52.286;21.124;2023-05-14T05:06:42;19.10;;;15.68;;
16699;SDS011;8466;52.286;21.124;2023-05-14T05:09:10;22.40;;;15.32;;
16699;SDS011;8466;52.286;21.124;2023-05-14T05:11:39;20.33;;;13.90;;
16699;SDS011;8466;52.286;21.124;2023-05-14T05:14:08;14.93;;;13.32;;
16699;SDS011;8466;52.286;21.124;2023-05-14T05:16:36;14.17;;;12.67;;
16699;SDS011;8466;52.286;21.124;2023-05-14T05:19:05;13.65;;;11.88;;
16699;SDS011;8466;52.286;21.124;2023-05-14T05:21:35;14.52;;;12.45;;
16699;SDS011;8466;52.286;21.124;2023-05-14T05:24:06;15.63;;;11.77;;
16699;SDS011;8466;52.286;21.124;2023-05-14T05:26:35;12.13;;;10.65;;
16699;SDS011;8466;52.286;21.124;2023-05-14T05:29:04;11.32;;;10.07;;
16699;SDS011;8466;52.286;21.124;2023-05-14T05:31:33;13.25;;;10.02;;
16699;SDS011;8466;52.286;21.124;2023-05-14T05:34:02;11.43;;;10.20;;
16699;SDS011;8466;52.286;21.124;2023-05-14T05:36:32;10.07;;;9.07;;
16699;SDS011;8466;52.286;21.124;2023-05-14T05:39:02;12.88;;;10.10;;
16699;SDS011;8466;52.286;21.124;2023-05-14T05:41:31;15.50;;;9.63;;
16699;SDS011;8466;52.286;21.124;2023-05-14T05:43:59;11.65;;;9.43;;
16699;SDS011;8466;52.286;21.124;2023-05-14T05:46:28;11.98;;;9.80;;
16699;SDS011;8466;52.286;21.124;2023-05-14T05:48:56;10.45;;;8.75;;
16699;SDS011;8466;52.286;21.124;2023-05-14T05:51:25;10.38;;;8.90;;
16699;SDS011;8466;52.286;21.124;2023-05-14T05:53:54;10.02;;;8.93;;
16699;SDS011;8466;52.286;21.124;2023-05-14T05:56:24;10.60;;;8.40;;
16699;SDS011;8466;52.286;21.124;2023-05-14T05:58:52;8.82;;;7.93;;
16699;SDS011;8466;52.286;21.124;2023-05-14T06:01:21;8.73;;;7.82;;
16699;SDS011;8466;52.286;21.124;2023-05-14T06:03:49;11.02;;;9.07;;
16699;SDS011;8466;52.286;21.124;2023-05-14T06:06:18;9.18;;;7.60;;
16699;SDS011;8466;52.286;21.124;2023-05-14T06:08:47;9.00;;;8.10;;
16699;SDS011;8466;52.286;21.124;2023-05-14T06:11:15;10.27;;;7.63;;
16699;SDS011;8466;52.286;21.124;2023-05-14T06:13:46;8.13;;;7.32;;
16699;SDS011;8466;52.286;21.124;2023-05-14T06:16:14;8.15;;;7.32;;
16699;SDS011;8466;52.286;21.124;2023-05-14T06:18:43;9.20;;;7.72;;
16699;SDS011;8466;52.286;21.124;2023-05-14T06:21:12;9.88;;;7.15;;
16699;SDS011;8466;52.286;21.124;2023-05-14T06:23:40;9.90;;;7.07;;
16699;SDS011;8466;52.286;21.124;2023-05-14T06:26:09;7.57;;;6.70;;
16699;SDS011;8466;52.286;21.124;2023-05-14T06:28:38;10.80;;;7.15;;
16699;SDS011;8466;52.286;21.124;2023-05-14T06:31:07;8.98;;;6.70;;
16699;SDS011;8466;52.286;21.124;2023-05-14T06:33:36;9.43;;;6.20;;
16699;SDS011;8466;52.286;21.124;2023-05-14T06:36:05;9.63;;;7.28;;
16699;SDS011;8466;52.286;21.124;2023-05-14T06:38:34;9.18;;;6.63;;
16699;SDS011;8466;52.286;21.124;2023-05-14T06:41:03;10.27;;;7.00;;
16699;SDS011;8466;52.286;21.124;2023-05-14T06:43:32;9.88;;;8.88;;
16699;SDS011;8466;52.286;21.124;2023-05-14T06:46:00;6.90;;;6.20;;
16699;SDS011;8466;52.286;21.124;2023-05-14T06:48:30;7.30;;;5.90;;
16699;SDS011;8466;52.286;21.124;2023-05-14T06:50:59;10.45;;;9.38;;
16699;SDS011;8466;52.286;21.124;2023-05-14T06:53:29;6.80;;;5.72;;
16699;SDS011;8466;52.286;21.124;2023-05-14T06:55:58;6.97;;;5.30;;
16699;SDS011;8466;52.286;21.124;2023-05-14T07:01:23;8.43;;;5.80;;
16699;SDS011;8466;52.286;21.124;2023-05-14T07:03:54;8.43;;;5.70;;
16699;SDS011;8466;52.286;21.124;2023-05-14T07:06:23;7.63;;;5.50;;
16699;SDS011;8466;52.286;21.124;2023-05-14T07:08:52;5.97;;;4.65;;
16699;SDS011;8466;52.286;21.124;2023-05-14T07:11:21;4.63;;;4.15;;
16699;SDS011;8466;52.286;21.124;2023-05-14T07:13:49;6.97;;;4.82;;
16699;SDS011;8466;52.286;21.124;2023-05-14T07:16:18;7.95;;;5.20;;
16699;SDS011;8466;52.286;21.124;2023-05-14T07:18:49;6.20;;;4.50;;
16699;SDS011;8466;52.286;21.124;2023-05-14T07:21:20;7.07;;;4.43;;
16699;SDS011;8466;52.286;21.124;2023-05-14T07:23:49;4.68;;;4.18;;
16699;SDS011;8466;52.286;21.124;2023-05-14T07:26:18;4.57;;;3.83;;
16699;SDS011;8466;52.286;21.124;2023-05-14T07:28:51;4.97;;;3.90;;
16699;SDS011;8466;52.286;21.124;2023-05-14T07:31:19;6.55;;;4.38;;
16699;SDS011;8466;52.286;21.124;2023-05-14T07:33:52;4.53;;;3.72;;
16699;SDS011;8466;52.286;21.124;2023-05-14T07:36:23;7.22;;;3.95;;
16699;SDS011;8466;52.286;21.124;2023-05-14T07:38:51;5.00;;;3.55;;
16699;SDS011;8466;52.286;21.124;2023-05-14T07:41:20;7.05;;;3.50;;
16699;SDS011;8466;52.286;21.124;2023-05-14T07:43:50;5.25;;;2.88;;
16699;SDS011;8466;52.286;21.124;2023-05-14T07:46:18;4.65;;;2.90;;
16699;SDS011;8466;52.286;21.124;2023-05-14T07:48:50;3.20;;;2.90;;
16699;SDS011;8466;52.286;21.124;2023-05-14T07:51:19;3.47;;;3.15;;
16699;SDS011;8466;52.286;21.124;2023-05-14T07:53:50;4.30;;;3.35;;
16699;SDS011;8466;52.286;21.124;2023-05-14T07:56:20;3.00;;;2.80;;
16699;SDS011;8466;52.286;21.124;2023-05-14T07:58:49;4.30;;;3.00;;
16699;SDS011;8466;52.286;21.124;2023-05-14T08:01:18;5.85;;;3.28;;
16699;SDS011;8466;52.286;21.124;2023-05-14T08:03:49;3.80;;;3.50;;
16699;SDS011;8466;52.286;21.124;2023-05-14T08:06:23;3.30;;;3.00;;
16699;SDS011;8466;52.286;21.124;2023-05-14T08:08:59;4.35;;;3.50;;
16699;SDS011;8466;52.286;21.124;2023-05-14T08:11:31;3.90;;;3.60;;
16699;SDS011;8466;52.286;21.124;2023-05-14T08:14:00;4.47;;;3.50;;
16699;SDS011;8466;52.286;21.124;2023-05-14T08:16:30;4.93;;;3.40;;
16699;SDS011;8466;52.286;21.124;2023-05-14T08:19:03;3.75;;;3.20;;
16699;SDS011;8466;52.286;21.124;2023-05-14T08:21:38;4.30;;;3.47;;
16699;SDS011;8466;52.286;21.124;2023-05-14T08:24:13;3.58;;;3.33;;
16699;SDS011;8466;52.286;21.124;2023-05-14T08:26:49;4.50;;;3.25;;
16699;SDS011;8466;52.286;21.124;2023-05-14T08:29:18;5.30;;;3.55;;
16699;SDS011;8466;52.286;21.124;2023-05-14T08:31:48;5.10;;;3.47;;
16699;SDS011;8466;52.286;21.124;2023-05-14T08:34:17;3.92;;;3.30;;
16699;SDS011;8466;52.286;21.124;2023-05-14T08:36:46;4.45;;;3.00;;
16699;SDS011;8466;52.286;21.124;2023-05-14T08:39:16;3.70;;;3.38;;
16699;SDS011;8466;52.286;21.124;2023-05-14T08:41:45;3.60;;;3.30;;
16699;SDS011;8466;52.286;21.124;2023-05-14T08:44:17;4.03;;;2.97;;
16699;SDS011;8466;52.286;21.124;2023-05-14T08:46:47;5.70;;;3.40;;
16699;SDS011;8466;52.286;21.124;2023-05-14T08:49:21;6.63;;;3.75;;
16699;SDS011;8466;52.286;21.124;2023-05-14T08:52:05;5.60;;;2.80;;
16699;SDS011;8466;52.286;21.124;2023-05-14T08:54:38;4.13;;;3.40;;
16699;SDS011;8466;52.286;21.124;2023-05-14T08:57:08;3.40;;;3.20;;
16699;SDS011;8466;52.286;21.124;2023-05-14T08:59:38;3.58;;;3.28;;
16699;SDS011;8466;52.286;21.124;2023-05-14T09:02:06;5.43;;;3.55;;
16699;SDS011;8466;52.286;21.124;2023-05-14T09:04:38;5.75;;;3.55;;
16699;SDS011;8466;52.286;21.124;2023-05-14T09:07:08;5.75;;;4.13;;
16699;SDS011;8466;52.286;21.124;2023-05-14T09:09:38;3.90;;;3.60;;
16699;SDS011;8466;52.286;21.124;2023-05-14T09:12:08;4.70;;;3.83;;
16699;SDS011;8466;52.286;21.124;2023-05-14T09:14:37;6.32;;;3.20;;
16699;SDS011;8466;52.286;21.124;2023-05-14T09:17:05;4.25;;;3.55;;
16699;SDS011;8466;52.286;21.124;2023-05-14T09:19:38;4.75;;;3.15;;
16699;SDS011;8466;52.286;21.124;2023-05-14T09:22:07;3.45;;;3.00;;
16699;SDS011;8466;52.286;21.124;2023-05-14T09:24:39;2.90;;;2.70;;
16699;SDS011;8466;52.286;21.124;2023-05-14T09:27:08;3.13;;;2.83;;
16699;SDS011;8466;52.286;21.124;2023-05-14T09:29:43;5.13;;;3.05;;
16699;SDS011;8466;52.286;21.124;2023-05-14T09:32:11;3.42;;;2.72;;
16699;SDS011;8466;52.286;21.124;2023-05-14T09:34:40;4.35;;;2.95;;
16699;SDS011;8466;52.286;21.124;2023-05-14T09:37:09;2.90;;;2.50;;
16699;SDS011;8466;52.286;21.124;2023-05-14T09:39:39;4.40;;;3.40;;
16699;SDS011;8466;52.286;21.124;2023-05-14T09:42:08;3.55;;;2.78;;
16699;SDS011;8466;52.286;21.124;2023-05-14T09:44:37;3.55;;;2.65;;
16699;SDS011;8466;52.286;21.124;2023-05-14T09:47:06;3.15;;;2.85;;
16699;SDS011;8466;52.286;21.124;2023-05-14T09:49:35;2.85;;;2.65;;
16699;SDS011;8466;52.286;21.124;2023-05-14T09:52:05;17.63;;;16.20;;
16699;SDS011;8466;52.286;21.124;2023-05-14T09:54:34;3.30;;;3.00;;
16699;SDS011;8466;52.286;21.124;2023-05-14T09:57:06;4.93;;;2.70;;
16699;SDS011;8466;52.286;21.124;2023-05-14T09:59:35;3.03;;;2.83;;
16699;SDS011;8466;52.286;21.124;2023-05-14T10:02:04;3.40;;;2.75;;
16699;SDS011;8466;52.286;21.124;2023-05-14T10:04:37;5.07;;;2.80;;
16699;SDS011;8466;52.286;21.124;2023-05-14T10:07:07;3.45;;;2.90;;
16699;SDS011;8466;52.286;21.124;2023-05-14T10:09:36;4.40;;;2.78;;
16699;SDS011;8466;52.286;21.124;2023-05-14T10:12:13;3.45;;;2.60;;
16699;SDS011;8466;52.286;21.124;2023-05-14T10:14:44;2.95;;;2.75;;
16699;SDS011;8466;52.286;21.124;2023-05-14T10:17:18;3.67;;;2.83;;
16699;SDS011;8466;52.286;21.124;2023-05-14T10:19:49;3.45;;;3.10;;
16699;SDS011;8466;52.286;21.124;2023-05-14T10:22:21;10.00;;;3.20;;
16699;SDS011;8466;52.286;21.124;2023-05-14T10:24:52;3.50;;;2.80;;
16699;SDS011;8466;52.286;21.124;2023-05-14T10:27:23;4.32;;;2.90;;
16699;SDS011;8466;52.286;21.124;2023-05-14T10:29:54;4.70;;;3.60;;
16699;SDS011;8466;52.286;21.124;2023-05-14T10:32:23;2.58;;;2.38;;
16699;SDS011;8466;52.286;21.124;2023-05-14T10:34:52;2.97;;;2.70;;
16699;SDS011;8466;52.286;21.124;2023-05-14T10:37:22;3.05;;;2.70;;
16699;SDS011;8466;52.286;21.124;2023-05-14T10:39:52;3.30;;;2.40;;
16699;SDS011;8466;52.286;21.124;2023-05-14T10:42:26;2.80;;;2.60;;
16699;SDS011;8466;52.286;21.124;2023-05-14T10:45:00;2.75;;;2.58;;
16699;SDS011;8466;52.286;21.124;2023-05-14T10:47:33;3.55;;;2.83;;
16699;SDS011;8466;52.286;21.124;2023-05-14T10:50:04;3.13;;;2.30;;
16699;SDS011;8466;52.286;21.124;2023-05-14T10:52:33;3.30;;;3.00;;
16699;SDS011;8466;52.286;21.124;2023-05-14T10:55:03;3.28;;;2.58;;
16699;SDS011;8466;52.286;21.124;2023-05-14T10:57:37;2.88;;;2.47;;
16699;SDS011;8466;52.286;21.124;2023-05-14T11:00:07;3.83;;;2.50;;
16699;SDS011;8466;52.286;21.124;2023-05-14T11:02:38;4.20;;;2.70;;
16699;SDS011;8466;52.286;21.124;2023-05-14T11:05:08;3.97;;;2.85;;
16699;SDS011;8466;52.286;21.124;2023-05-14T11:07:40;3.20;;;2.95;;
16699;SDS011;8466;52.286;21.124;2023-05-14T11:10:11;3.85;;;2.63;;
16699;SDS011;8466;52.286;21.124;2023-05-14T11:12:42;2.65;;;2.45;;
16699;SDS011;8466;52.286;21.124;2023-05-14T11:15:13;3.95;;;2.40;;
16699;SDS011;8466;52.286;21.124;2023-05-14T11:17:43;2.83;;;2.58;;
16699;SDS011;8466;52.286;21.124;2023-05-14T11:20:13;2.85;;;2.65;;
16699;SDS011;8466;52.286;21.124;2023-05-14T11:22:42;3.47;;;3.17;;
16699;SDS011;8466;52.286;21.124;2023-05-14T11:25:13;6.45;;;2.30;;
16699;SDS011;8466;52.286;21.124;2023-05-14T11:27:45;5.25;;;2.63;;
16699;SDS011;8466;52.286;21.124;2023-05-14T11:30:14;10.90;;;10.20;;
16699;SDS011;8466;52.286;21.124;2023-05-14T11:32:44;3.78;;;2.60;;
16699;SDS011;8466;52.286;21.124;2023-05-14T11:35:15;14.90;;;13.90;;
16699;SDS011;8466;52.286;21.124;2023-05-14T11:37:48;3.22;;;3.03;;
16699;SDS011;8466;52.286;21.124;2023-05-14T11:40:18;5.35;;;3.53;;
16699;SDS011;8466;52.286;21.124;2023-05-14T11:42:51;4.80;;;3.63;;
16699;SDS011;8466;52.286;21.124;2023-05-14T11:45:23;6.72;;;4.00;;
16699;SDS011;8466;52.286;21.124;2023-05-14T11:47:53;3.38;;;2.55;;
16699;SDS011;8466;52.286;21.124;2023-05-14T11:50:22;4.15;;;2.33;;
16699;SDS011;8466;52.286;21.124;2023-05-14T11:52:55;8.02;;;2.97;;
16699;SDS011;8466;52.286;21.124;2023-05-14T11:55:24;4.93;;;3.22;;
16699;SDS011;8466;52.286;21.124;2023-05-14T11:57:54;3.35;;;2.60;;
16699;SDS011;8466;52.286;21.124;2023-05-14T12:00:23;3.60;;;2.40;;
16699;SDS011;8466;52.286;21.124;2023-05-14T12:02:53;3.55;;;2.45;;
16699;SDS011;8466;52.286;21.124;2023-05-14T12:05:22;2.47;;;2.38;;
16699;SDS011;8466;52.286;21.124;2023-05-14T12:07:51;8.52;;;5.13;;
16699;SDS011;8466;52.286;21.124;2023-05-14T12:10:21;9.35;;;4.38;;
16699;SDS011;8466;52.286;21.124;2023-05-14T12:12:51;2.58;;;2.40;;
16699;SDS011;8466;52.286;21.124;2023-05-14T12:15:21;18.98;;;12.15;;
16699;SDS011;8466;52.286;21.124;2023-05-14T12:17:50;5.40;;;4.00;;
16699;SDS011;8466;52.286;21.124;2023-05-14T12:20:19;2.80;;;2.40;;
16699;SDS011;8466;52.286;21.124;2023-05-14T12:22:48;2.53;;;2.33;;
16699;SDS011;8466;52.286;21.124;2023-05-14T12:25:17;12.73;;;12.02;;
16699;SDS011;8466;52.286;21.124;2023-05-14T12:27:46;3.63;;;3.28;;
16699;SDS011;8466;52.286;21.124;2023-05-14T12:30:14;4.00;;;3.00;;
16699;SDS011;8466;52.286;21.124;2023-05-14T12:32:48;4.60;;;2.20;;
16699;SDS011;8466;52.286;21.124;2023-05-14T12:35:19;5.10;;;2.30;;
16699;SDS011;8466;52.286;21.124;2023-05-14T12:37:49;4.88;;;2.10;;
16699;SDS011;8466;52.286;21.124;2023-05-14T12:40:18;18.77;;;17.52;;
16699;SDS011;8466;52.286;21.124;2023-05-14T12:42:47;16.45;;;15.32;;
16699;SDS011;8466;52.286;21.124;2023-05-14T12:45:16;23.10;;;21.60;;
16699;SDS011;8466;52.286;21.124;2023-05-14T12:47:45;2.90;;;2.70;;
16699;SDS011;8466;52.286;21.124;2023-05-14T12:50:15;6.68;;;2.00;;
16699;SDS011;8466;52.286;21.124;2023-05-14T12:52:44;2.42;;;2.22;;
16699;SDS011;8466;52.286;21.124;2023-05-14T12:55:13;3.67;;;2.25;;
16699;SDS011;8466;52.286;21.124;2023-05-14T12:57:42;2.80;;;2.60;;
16699;SDS011;8466;52.286;21.124;2023-05-14T13:00:11;4.18;;;2.35;;
16699;SDS011;8466;52.286;21.124;2023-05-14T13:02:40;3.67;;;2.28;;
16699;SDS011;8466;52.286;21.124;2023-05-14T13:05:09;3.28;;;2.42;;
16699;SDS011;8466;52.286;21.124;2023-05-14T13:07:40;4.50;;;2.35;;
16699;SDS011;8466;52.286;21.124;2023-05-14T13:10:12;7.82;;;2.75;;
16699;SDS011;8466;52.286;21.124;2023-05-14T13:12:43;3.20;;;2.60;;
16699;SDS011;8466;52.286;21.124;2023-05-14T13:15:11;3.95;;;2.90;;
16699;SDS011;8466;52.286;21.124;2023-05-14T13:17:41;4.45;;;3.22;;
16699;SDS011;8466;52.286;21.124;2023-05-14T13:20:10;2.70;;;2.50;;
16699;SDS011;8466;52.286;21.124;2023-05-14T13:22:43;4.18;;;3.38;;
16699;SDS011;8466;52.286;21.124;2023-05-14T13:25:13;23.63;;;21.52;;
16699;SDS011;8466;52.286;21.124;2023-05-14T13:27:42;5.72;;;2.60;;
16699;SDS011;8466;52.286;21.124;2023-05-14T13:30:13;4.18;;;2.40;;
16699;SDS011;8466;52.286;21.124;2023-05-14T13:32:43;5.13;;;2.30;;
16699;SDS011;8466;52.286;21.124;2023-05-14T13:35:12;2.60;;;2.35;;
16699;SDS011;8466;52.286;21.124;2023-05-14T13:37:43;7.53;;;6.93;;
16699;SDS011;8466;52.286;21.124;2023-05-14T13:40:11;4.20;;;2.25;;
16699;SDS011;8466;52.286;21.124;2023-05-14T13:42:43;2.95;;;2.30;;
16699;SDS011;8466;52.286;21.124;2023-05-14T13:45:12;2.85;;;2.30;;
16699;SDS011;8466;52.286;21.124;2023-05-14T13:47:40;4.22;;;2.40;;
16699;SDS011;8466;52.286;21.124;2023-05-14T13:50:10;2.70;;;2.50;;
16699;SDS011;8466;52.286;21.124;2023-05-14T13:52:43;4.50;;;2.80;;
16699;SDS011;8466;52.286;21.124;2023-05-14T13:55:12;5.07;;;2.83;;
16699;SDS011;8466;52.286;21.124;2023-05-14T13:57:41;3.58;;;3.00;;
16699;SDS011;8466;52.286;21.124;2023-05-14T14:00:10;2.88;;;2.58;;
16699;SDS011;8466;52.286;21.124;2023-05-14T14:02:40;4.75;;;3.10;;
16699;SDS011;8466;52.286;21.124;2023-05-14T14:05:09;2.50;;;2.30;;
16699;SDS011;8466;52.286;21.124;2023-05-14T14:07:38;5.38;;;2.50;;
16699;SDS011;8466;52.286;21.124;2023-05-14T14:10:09;4.22;;;2.40;;
16699;SDS011;8466;52.286;21.124;2023-05-14T14:12:37;2.20;;;2.00;;
16699;SDS011;8466;52.286;21.124;2023-05-14T14:15:06;4.88;;;2.20;;
16699;SDS011;8466;52.286;21.124;2023-05-14T14:17:35;3.78;;;2.58;;
16699;SDS011;8466;52.286;21.124;2023-05-14T14:20:05;6.00;;;2.53;;
16699;SDS011;8466;52.286;21.124;2023-05-14T14:22:35;2.78;;;2.45;;
16699;SDS011;8466;52.286;21.124;2023-05-14T14:25:04;6.85;;;2.35;;
16699;SDS011;8466;52.286;21.124;2023-05-14T14:27:35;2.75;;;2.20;;
16699;SDS011;8466;52.286;21.124;2023-05-14T14:30:05;3.83;;;2.63;;
16699;SDS011;8466;52.286;21.124;2023-05-14T14:32:35;2.78;;;2.10;;
16699;SDS011;8466;52.286;21.124;2023-05-14T14:35:04;4.80;;;2.53;;
16699;SDS011;8466;52.286;21.124;2023-05-14T14:37:33;5.32;;;2.42;;
16699;SDS011;8466;52.286;21.124;2023-05-14T14:40:02;3.85;;;2.38;;
16699;SDS011;8466;52.286;21.124;2023-05-14T14:42:32;2.40;;;2.20;;
16699;SDS011;8466;52.286;21.124;2023-05-14T14:45:03;2.92;;;2.22;;
16699;SDS011;8466;52.286;21.124;2023-05-14T14:47:32;3.10;;;2.40;;
16699;SDS011;8466;52.286;21.124;2023-05-14T14:50:01;6.35;;;2.35;;
16699;SDS011;8466;52.286;21.124;2023-05-14T14:52:30;3.90;;;2.40;;
16699;SDS011;8466;52.286;21.124;2023-05-14T14:54:59;2.97;;;2.40;;
16699;SDS011;8466;52.286;21.124;2023-05-14T14:57:28;2.90;;;2.50;;